sensor_id;sensor_type;location;lat;lon;timestamp;P1;durP1;ratioP1;P2;durP2;ratioP2
39788;SDS011;25478;42.626;23.320;2022-12-07T00:02:14;74.83;;;37.27;;
39788;SDS011;25478;42.626;23.320;2022-12-07T00:04:40;74.07;;;37.53;;
39788;SDS011;25478;42.626;23.320;2022-12-07T00:07:05;77.17;;;36.97;;
39788;SDS011;25478;42.626;23.320;2022-12-07T00:09:31;77.63;;;38.03;;
39788;SDS011;25478;42.626;23.320;2022-12-07T00:11:56;77.10;;;38.27;;
39788;SDS011;25478;42.626;23.320;2022-12-07T00:14:22;79.87;;;38.73;;
39788;SDS011;25478;42.626;23.320;2022-12-07T00:16:48;73.90;;;37.33;;
39788;SDS011;25478;42.626;23.320;2022-12-07T00:19:16;74.10;;;36.37;;
39788;SDS011;25478;42.626;23.320;2022-12-07T00:21:42;76.93;;;36.43;;
39788;SDS011;25478;42.626;23.320;2022-12-07T00:24:08;82.43;;;38.53;;
39788;SDS011;25478;42.626;23.320;2022-12-07T00:26:35;80.03;;;37.47;;
39788;SDS011;25478;42.626;23.320;2022-12-07T00:29:04;78.50;;;37.57;;
39788;SDS011;25478;42.626;23.320;2022-12-07T00:31:33;76.27;;;36.27;;
39788;SDS011;25478;42.626;23.320;2022-12-07T00:34:03;73.77;;;37.00;;
39788;SDS011;25478;42.626;23.320;2022-12-07T00:36:30;76.37;;;38.47;;
39788;SDS011;25478;42.626;23.320;2022-12-07T00:38:57;80.83;;;39.17;;
39788;SDS011;25478;42.626;23.320;2022-12-07T00:41:24;78.97;;;39.20;;
39788;SDS011;25478;42.626;23.320;2022-12-07T00:43:50;77.00;;;39.53;;
39788;SDS011;25478;42.626;23.320;2022-12-07T00:46:17;87.77;;;40.93;;
39788;SDS011;25478;42.626;23.320;2022-12-07T00:48:44;90.73;;;42.93;;
39788;SDS011;25478;42.626;23.320;2022-12-07T00:51:10;84.10;;;42.73;;
39788;SDS011;25478;42.626;23.320;2022-12-07T00:53:37;85.53;;;42.10;;
39788;SDS011;25478;42.626;23.320;2022-12-07T00:56:11;86.77;;;43.33;;
39788;SDS011;25478;42.626;23.320;2022-12-07T00:58:41;84.07;;;42.20;;
39788;SDS011;25478;42.626;23.320;2022-12-07T01:01:08;92.20;;;45.90;;
39788;SDS011;25478;42.626;23.320;2022-12-07T01:03:34;88.27;;;43.00;;
39788;SDS011;25478;42.626;23.320;2022-12-07T01:06:01;89.20;;;43.33;;
39788;SDS011;25478;42.626;23.320;2022-12-07T01:08:27;94.27;;;44.10;;
39788;SDS011;25478;42.626;23.320;2022-12-07T01:11:00;96.90;;;46.83;;
39788;SDS011;25478;42.626;23.320;2022-12-07T01:13:30;99.77;;;47.53;;
39788;SDS011;25478;42.626;23.320;2022-12-07T01:15:57;104.53;;;47.80;;
39788;SDS011;25478;42.626;23.320;2022-12-07T01:18:25;100.20;;;49.17;;
39788;SDS011;25478;42.626;23.320;2022-12-07T01:20:58;93.07;;;49.20;;
39788;SDS011;25478;42.626;23.320;2022-12-07T01:23:25;98.53;;;50.70;;
39788;SDS011;25478;42.626;23.320;2022-12-07T01:25:57;92.73;;;48.17;;
39788;SDS011;25478;42.626;23.320;2022-12-07T01:28:24;96.00;;;48.27;;
39788;SDS011;25478;42.626;23.320;2022-12-07T01:31:03;88.23;;;42.20;;
39788;SDS011;25478;42.626;23.320;2022-12-07T01:33:30;89.83;;;43.50;;
39788;SDS011;25478;42.626;23.320;2022-12-07T01:38:30;88.17;;;43.60;;
39788;SDS011;25478;42.626;23.320;2022-12-07T01:40:56;85.00;;;42.77;;
39788;SDS011;25478;42.626;23.320;2022-12-07T01:43:22;88.47;;;42.43;;
39788;SDS011;25478;42.626;23.320;2022-12-07T01:45:49;80.87;;;42.37;;
39788;SDS011;25478;42.626;23.320;2022-12-07T01:48:15;83.50;;;42.53;;
39788;SDS011;25478;42.626;23.320;2022-12-07T01:50:45;85.93;;;40.83;;
39788;SDS011;25478;42.626;23.320;2022-12-07T01:53:13;84.20;;;42.33;;
39788;SDS011;25478;42.626;23.320;2022-12-07T01:55:40;84.17;;;39.97;;
39788;SDS011;25478;42.626;23.320;2022-12-07T01:58:09;77.03;;;39.20;;
39788;SDS011;25478;42.626;23.320;2022-12-07T02:00:36;74.87;;;38.33;;
39788;SDS011;25478;42.626;23.320;2022-12-07T02:05:46;79.10;;;39.35;;
39788;SDS011;25478;42.626;23.320;2022-12-07T02:08:14;84.20;;;38.83;;
39788;SDS011;25478;42.626;23.320;2022-12-07T02:10:40;78.97;;;41.17;;
39788;SDS011;25478;42.626;23.320;2022-12-07T02:13:15;87.90;;;41.67;;
39788;SDS011;25478;42.626;23.320;2022-12-07T02:18:29;82.63;;;39.47;;
39788;SDS011;25478;42.626;23.320;2022-12-07T02:21:10;79.30;;;38.20;;
39788;SDS011;25478;42.626;23.320;2022-12-07T02:29:31;78.03;;;35.97;;
39788;SDS011;25478;42.626;23.320;2022-12-07T02:32:06;75.90;;;36.73;;
39788;SDS011;25478;42.626;23.320;2022-12-07T02:34:35;74.80;;;35.73;;
39788;SDS011;25478;42.626;23.320;2022-12-07T02:42:37;73.18;;;34.08;;
39788;SDS011;25478;42.626;23.320;2022-12-07T02:45:06;65.32;;;32.83;;
39788;SDS011;25478;42.626;23.320;2022-12-07T02:47:33;72.73;;;33.63;;
39788;SDS011;25478;42.626;23.320;2022-12-07T02:50:04;60.83;;;32.93;;
39788;SDS011;25478;42.626;23.320;2022-12-07T02:52:31;68.77;;;33.17;;
39788;SDS011;25478;42.626;23.320;2022-12-07T02:54:57;64.80;;;33.07;;
39788;SDS011;25478;42.626;23.320;2022-12-07T02:57:42;66.37;;;32.53;;
39788;SDS011;25478;42.626;23.320;2022-12-07T03:00:18;67.55;;;30.30;;
39788;SDS011;25478;42.626;23.320;2022-12-07T03:02:50;62.27;;;31.63;;
39788;SDS011;25478;42.626;23.320;2022-12-07T03:10:55;60.07;;;29.90;;
39788;SDS011;25478;42.626;23.320;2022-12-07T03:16:19;67.10;;;31.03;;
39788;SDS011;25478;42.626;23.320;2022-12-07T03:19:03;60.03;;;29.80;;
39788;SDS011;25478;42.626;23.320;2022-12-07T03:21:43;61.28;;;30.20;;
39788;SDS011;25478;42.626;23.320;2022-12-07T03:24:15;65.70;;;31.27;;
39788;SDS011;25478;42.626;23.320;2022-12-07T03:26:46;72.13;;;35.80;;
39788;SDS011;25478;42.626;23.320;2022-12-07T03:29:23;65.40;;;33.33;;
39788;SDS011;25478;42.626;23.320;2022-12-07T03:32:14;66.77;;;33.37;;
39788;SDS011;25478;42.626;23.320;2022-12-07T03:40:28;54.63;;;27.10;;
39788;SDS011;25478;42.626;23.320;2022-12-07T03:42:59;50.67;;;25.87;;
39788;SDS011;25478;42.626;23.320;2022-12-07T03:50:54;55.90;;;27.33;;
39788;SDS011;25478;42.626;23.320;2022-12-07T03:53:27;53.63;;;27.03;;
39788;SDS011;25478;42.626;23.320;2022-12-07T03:55:59;52.07;;;25.93;;
39788;SDS011;25478;42.626;23.320;2022-12-07T03:58:26;46.83;;;23.80;;
39788;SDS011;25478;42.626;23.320;2022-12-07T04:00:53;46.53;;;22.20;;
39788;SDS011;25478;42.626;23.320;2022-12-07T04:03:18;45.77;;;23.30;;
39788;SDS011;25478;42.626;23.320;2022-12-07T04:05:44;49.43;;;22.37;;
39788;SDS011;25478;42.626;23.320;2022-12-07T04:08:10;48.93;;;25.93;;
39788;SDS011;25478;42.626;23.320;2022-12-07T04:10:35;48.83;;;23.57;;
39788;SDS011;25478;42.626;23.320;2022-12-07T04:13:01;41.27;;;21.67;;
39788;SDS011;25478;42.626;23.320;2022-12-07T04:15:27;44.80;;;22.40;;
39788;SDS011;25478;42.626;23.320;2022-12-07T04:17:53;48.20;;;24.43;;
39788;SDS011;25478;42.626;23.320;2022-12-07T04:20:20;48.93;;;24.30;;
39788;SDS011;25478;42.626;23.320;2022-12-07T04:22:46;48.27;;;24.10;;
39788;SDS011;25478;42.626;23.320;2022-12-07T04:25:11;56.10;;;25.23;;
39788;SDS011;25478;42.626;23.320;2022-12-07T04:27:37;45.93;;;23.13;;
39788;SDS011;25478;42.626;23.320;2022-12-07T04:30:03;51.20;;;24.13;;
39788;SDS011;25478;42.626;23.320;2022-12-07T04:32:29;52.60;;;23.73;;
39788;SDS011;25478;42.626;23.320;2022-12-07T04:34:54;43.67;;;23.73;;
39788;SDS011;25478;42.626;23.320;2022-12-07T04:37:20;43.63;;;24.10;;
39788;SDS011;25478;42.626;23.320;2022-12-07T04:39:45;46.63;;;23.60;;
39788;SDS011;25478;42.626;23.320;2022-12-07T04:42:11;44.40;;;22.30;;
39788;SDS011;25478;42.626;23.320;2022-12-07T04:44:37;50.20;;;23.47;;
39788;SDS011;25478;42.626;23.320;2022-12-07T04:47:03;47.83;;;24.30;;
39788;SDS011;25478;42.626;23.320;2022-12-07T04:49:29;46.87;;;23.73;;
39788;SDS011;25478;42.626;23.320;2022-12-07T04:51:54;49.43;;;25.17;;
39788;SDS011;25478;42.626;23.320;2022-12-07T04:54:20;43.33;;;24.00;;
39788;SDS011;25478;42.626;23.320;2022-12-07T04:56:46;52.23;;;25.83;;
39788;SDS011;25478;42.626;23.320;2022-12-07T04:59:12;58.17;;;27.47;;
39788;SDS011;25478;42.626;23.320;2022-12-07T05:01:39;52.57;;;27.93;;
39788;SDS011;25478;42.626;23.320;2022-12-07T05:04:05;53.77;;;26.60;;
39788;SDS011;25478;42.626;23.320;2022-12-07T05:06:31;49.80;;;26.10;;
39788;SDS011;25478;42.626;23.320;2022-12-07T05:08:57;53.93;;;27.27;;
39788;SDS011;25478;42.626;23.320;2022-12-07T05:11:22;51.17;;;27.07;;
39788;SDS011;25478;42.626;23.320;2022-12-07T05:14:04;54.33;;;26.53;;
39788;SDS011;25478;42.626;23.320;2022-12-07T05:16:32;46.90;;;24.97;;
39788;SDS011;25478;42.626;23.320;2022-12-07T05:18:58;47.97;;;26.80;;
39788;SDS011;25478;42.626;23.320;2022-12-07T05:21:23;54.27;;;26.90;;
39788;SDS011;25478;42.626;23.320;2022-12-07T05:23:49;50.40;;;29.10;;
39788;SDS011;25478;42.626;23.320;2022-12-07T05:26:15;67.27;;;33.20;;
39788;SDS011;25478;42.626;23.320;2022-12-07T05:28:40;61.40;;;32.67;;
39788;SDS011;25478;42.626;23.320;2022-12-07T05:31:06;59.43;;;30.63;;
39788;SDS011;25478;42.626;23.320;2022-12-07T05:33:32;65.97;;;32.67;;
39788;SDS011;25478;42.626;23.320;2022-12-07T05:35:57;78.63;;;36.87;;
39788;SDS011;25478;42.626;23.320;2022-12-07T05:38:23;89.10;;;40.37;;
39788;SDS011;25478;42.626;23.320;2022-12-07T05:40:49;71.90;;;33.27;;
39788;SDS011;25478;42.626;23.320;2022-12-07T05:43:15;69.10;;;31.73;;
39788;SDS011;25478;42.626;23.320;2022-12-07T05:45:41;74.50;;;33.00;;
39788;SDS011;25478;42.626;23.320;2022-12-07T05:48:06;69.73;;;33.00;;
39788;SDS011;25478;42.626;23.320;2022-12-07T05:50:32;71.97;;;32.00;;
39788;SDS011;25478;42.626;23.320;2022-12-07T05:53:00;71.57;;;32.77;;
39788;SDS011;25478;42.626;23.320;2022-12-07T05:55:25;62.13;;;29.57;;
39788;SDS011;25478;42.626;23.320;2022-12-07T05:57:51;64.03;;;30.50;;
39788;SDS011;25478;42.626;23.320;2022-12-07T06:00:35;73.07;;;31.50;;
39788;SDS011;25478;42.626;23.320;2022-12-07T06:03:00;67.10;;;31.33;;
39788;SDS011;25478;42.626;23.320;2022-12-07T06:05:26;64.57;;;30.27;;
39788;SDS011;25478;42.626;23.320;2022-12-07T06:07:51;61.43;;;29.13;;
39788;SDS011;25478;42.626;23.320;2022-12-07T06:10:17;64.83;;;29.20;;
39788;SDS011;25478;42.626;23.320;2022-12-07T06:12:42;64.60;;;30.17;;
39788;SDS011;25478;42.626;23.320;2022-12-07T06:15:10;70.00;;;31.27;;
39788;SDS011;25478;42.626;23.320;2022-12-07T06:17:38;64.93;;;29.13;;
39788;SDS011;25478;42.626;23.320;2022-12-07T06:20:04;67.23;;;29.83;;
39788;SDS011;25478;42.626;23.320;2022-12-07T06:22:30;63.60;;;31.83;;
39788;SDS011;25478;42.626;23.320;2022-12-07T06:24:55;68.10;;;32.77;;
39788;SDS011;25478;42.626;23.320;2022-12-07T06:27:21;82.90;;;35.43;;
39788;SDS011;25478;42.626;23.320;2022-12-07T06:29:47;77.10;;;34.40;;
39788;SDS011;25478;42.626;23.320;2022-12-07T06:32:12;75.40;;;36.07;;
39788;SDS011;25478;42.626;23.320;2022-12-07T06:34:38;78.93;;;37.90;;
39788;SDS011;25478;42.626;23.320;2022-12-07T06:37:04;95.33;;;44.83;;
39788;SDS011;25478;42.626;23.320;2022-12-07T06:39:29;94.80;;;44.83;;
39788;SDS011;25478;42.626;23.320;2022-12-07T06:41:55;110.17;;;47.60;;
39788;SDS011;25478;42.626;23.320;2022-12-07T06:44:22;113.80;;;49.67;;
39788;SDS011;25478;42.626;23.320;2022-12-07T06:46:48;103.17;;;46.33;;
39788;SDS011;25478;42.626;23.320;2022-12-07T06:49:14;110.97;;;46.83;;
39788;SDS011;25478;42.626;23.320;2022-12-07T06:51:39;96.17;;;43.07;;
39788;SDS011;25478;42.626;23.320;2022-12-07T06:54:10;93.73;;;41.50;;
39788;SDS011;25478;42.626;23.320;2022-12-07T06:56:37;103.70;;;44.03;;
39788;SDS011;25478;42.626;23.320;2022-12-07T06:59:03;97.60;;;42.43;;
39788;SDS011;25478;42.626;23.320;2022-12-07T07:01:30;111.17;;;43.90;;
39788;SDS011;25478;42.626;23.320;2022-12-07T07:03:56;106.43;;;42.57;;
39788;SDS011;25478;42.626;23.320;2022-12-07T07:06:21;104.77;;;42.97;;
39788;SDS011;25478;42.626;23.320;2022-12-07T07:08:47;97.93;;;40.90;;
39788;SDS011;25478;42.626;23.320;2022-12-07T07:11:12;94.53;;;39.10;;
39788;SDS011;25478;42.626;23.320;2022-12-07T07:13:38;101.23;;;43.23;;
39788;SDS011;25478;42.626;23.320;2022-12-07T07:16:04;99.83;;;40.70;;
39788;SDS011;25478;42.626;23.320;2022-12-07T07:18:30;99.90;;;40.90;;
39788;SDS011;25478;42.626;23.320;2022-12-07T07:20:55;87.43;;;39.47;;
39788;SDS011;25478;42.626;23.320;2022-12-07T07:23:21;90.97;;;39.27;;
39788;SDS011;25478;42.626;23.320;2022-12-07T07:25:47;86.73;;;36.27;;
39788;SDS011;25478;42.626;23.320;2022-12-07T07:28:13;89.03;;;36.90;;
39788;SDS011;25478;42.626;23.320;2022-12-07T07:30:38;90.93;;;37.97;;
39788;SDS011;25478;42.626;23.320;2022-12-07T07:33:04;83.93;;;35.60;;
39788;SDS011;25478;42.626;23.320;2022-12-07T07:35:30;82.73;;;35.93;;
39788;SDS011;25478;42.626;23.320;2022-12-07T07:37:57;88.03;;;35.40;;
39788;SDS011;25478;42.626;23.320;2022-12-07T07:40:23;80.03;;;34.70;;
39788;SDS011;25478;42.626;23.320;2022-12-07T07:42:50;80.67;;;34.73;;
39788;SDS011;25478;42.626;23.320;2022-12-07T07:45:16;89.00;;;36.70;;
39788;SDS011;25478;42.626;23.320;2022-12-07T07:47:43;90.00;;;35.90;;
39788;SDS011;25478;42.626;23.320;2022-12-07T07:50:08;85.80;;;34.40;;
39788;SDS011;25478;42.626;23.320;2022-12-07T07:52:34;83.83;;;34.47;;
39788;SDS011;25478;42.626;23.320;2022-12-07T07:55:00;72.67;;;32.40;;
39788;SDS011;25478;42.626;23.320;2022-12-07T07:57:25;81.20;;;33.60;;
39788;SDS011;25478;42.626;23.320;2022-12-07T07:59:52;78.90;;;34.50;;
39788;SDS011;25478;42.626;23.320;2022-12-07T08:02:18;76.13;;;33.53;;
39788;SDS011;25478;42.626;23.320;2022-12-07T08:04:45;78.77;;;34.33;;
39788;SDS011;25478;42.626;23.320;2022-12-07T08:07:11;79.40;;;34.03;;
39788;SDS011;25478;42.626;23.320;2022-12-07T08:09:38;83.53;;;35.30;;
39788;SDS011;25478;42.626;23.320;2022-12-07T08:12:03;88.77;;;35.87;;
39788;SDS011;25478;42.626;23.320;2022-12-07T08:14:29;80.90;;;36.10;;
39788;SDS011;25478;42.626;23.320;2022-12-07T08:16:55;94.73;;;37.83;;
39788;SDS011;25478;42.626;23.320;2022-12-07T08:19:21;87.07;;;36.67;;
39788;SDS011;25478;42.626;23.320;2022-12-07T08:21:46;85.97;;;37.47;;
39788;SDS011;25478;42.626;23.320;2022-12-07T08:24:12;80.30;;;35.60;;
39788;SDS011;25478;42.626;23.320;2022-12-07T08:26:38;84.47;;;36.00;;
39788;SDS011;25478;42.626;23.320;2022-12-07T08:29:04;85.87;;;38.23;;
39788;SDS011;25478;42.626;23.320;2022-12-07T08:31:29;83.70;;;36.93;;
39788;SDS011;25478;42.626;23.320;2022-12-07T08:33:55;89.40;;;38.73;;
39788;SDS011;25478;42.626;23.320;2022-12-07T08:36:20;89.23;;;38.40;;
39788;SDS011;25478;42.626;23.320;2022-12-07T08:38:47;85.93;;;39.07;;
39788;SDS011;25478;42.626;23.320;2022-12-07T08:41:13;97.30;;;41.27;;
39788;SDS011;25478;42.626;23.320;2022-12-07T08:43:39;106.67;;;44.10;;
39788;SDS011;25478;42.626;23.320;2022-12-07T08:46:09;115.17;;;49.00;;
39788;SDS011;25478;42.626;23.320;2022-12-07T08:48:46;129.33;;;52.87;;
39788;SDS011;25478;42.626;23.320;2022-12-07T08:51:17;108.47;;;47.20;;
39788;SDS011;25478;42.626;23.320;2022-12-07T08:53:43;100.63;;;44.60;;
39788;SDS011;25478;42.626;23.320;2022-12-07T08:56:09;100.60;;;45.73;;
39788;SDS011;25478;42.626;23.320;2022-12-07T08:58:35;94.63;;;43.27;;
39788;SDS011;25478;42.626;23.320;2022-12-07T09:01:03;97.10;;;47.27;;
39788;SDS011;25478;42.626;23.320;2022-12-07T09:03:29;94.90;;;43.07;;
39788;SDS011;25478;42.626;23.320;2022-12-07T09:05:55;90.70;;;40.53;;
39788;SDS011;25478;42.626;23.320;2022-12-07T09:08:21;92.60;;;41.27;;
39788;SDS011;25478;42.626;23.320;2022-12-07T09:10:52;89.57;;;39.97;;
39788;SDS011;25478;42.626;23.320;2022-12-07T09:13:17;85.90;;;40.03;;
39788;SDS011;25478;42.626;23.320;2022-12-07T09:15:42;92.33;;;41.77;;
39788;SDS011;25478;42.626;23.320;2022-12-07T09:18:08;86.10;;;39.83;;
39788;SDS011;25478;42.626;23.320;2022-12-07T09:20:33;86.97;;;41.70;;
39788;SDS011;25478;42.626;23.320;2022-12-07T09:22:59;85.43;;;39.23;;
39788;SDS011;25478;42.626;23.320;2022-12-07T09:25:24;90.43;;;40.77;;
39788;SDS011;25478;42.626;23.320;2022-12-07T09:27:57;96.43;;;44.57;;
39788;SDS011;25478;42.626;23.320;2022-12-07T09:30:23;104.37;;;51.87;;
39788;SDS011;25478;42.626;23.320;2022-12-07T09:32:49;120.23;;;55.90;;
39788;SDS011;25478;42.626;23.320;2022-12-07T09:35:15;122.90;;;56.50;;
39788;SDS011;25478;42.626;23.320;2022-12-07T09:37:40;123.87;;;57.07;;
39788;SDS011;25478;42.626;23.320;2022-12-07T09:40:06;117.27;;;54.83;;
39788;SDS011;25478;42.626;23.320;2022-12-07T09:45:13;91.23;;;41.83;;
39788;SDS011;25478;42.626;23.320;2022-12-07T09:47:40;74.43;;;37.23;;
39788;SDS011;25478;42.626;23.320;2022-12-07T09:50:17;72.30;;;37.20;;
39788;SDS011;25478;42.626;23.320;2022-12-07T09:52:46;74.67;;;35.77;;
39788;SDS011;25478;42.626;23.320;2022-12-07T09:55:14;64.13;;;32.77;;
39788;SDS011;25478;42.626;23.320;2022-12-07T09:57:44;66.00;;;32.20;;
39788;SDS011;25478;42.626;23.320;2022-12-07T10:00:14;66.33;;;32.70;;
39788;SDS011;25478;42.626;23.320;2022-12-07T10:02:43;64.97;;;33.17;;
39788;SDS011;25478;42.626;23.320;2022-12-07T10:05:21;69.40;;;35.87;;
39788;SDS011;25478;42.626;23.320;2022-12-07T10:08:10;68.77;;;35.13;;
39788;SDS011;25478;42.626;23.320;2022-12-07T10:10:36;74.30;;;35.43;;
39788;SDS011;25478;42.626;23.320;2022-12-07T10:18:20;70.13;;;34.57;;
39788;SDS011;25478;42.626;23.320;2022-12-07T10:20:46;69.10;;;34.23;;
39788;SDS011;25478;42.626;23.320;2022-12-07T10:23:16;65.97;;;31.57;;
39788;SDS011;25478;42.626;23.320;2022-12-07T10:25:43;69.37;;;34.00;;
39788;SDS011;25478;42.626;23.320;2022-12-07T10:28:13;76.97;;;38.17;;
39788;SDS011;25478;42.626;23.320;2022-12-07T10:31:01;71.87;;;36.77;;
39788;SDS011;25478;42.626;23.320;2022-12-07T10:36:21;66.67;;;37.10;;
39788;SDS011;25478;42.626;23.320;2022-12-07T10:38:49;70.43;;;37.50;;
39788;SDS011;25478;42.626;23.320;2022-12-07T10:41:24;117.60;;;63.27;;
39788;SDS011;25478;42.626;23.320;2022-12-07T10:43:54;78.57;;;40.53;;
39788;SDS011;25478;42.626;23.320;2022-12-07T10:54:40;65.37;;;35.20;;
39788;SDS011;25478;42.626;23.320;2022-12-07T11:00:25;67.10;;;33.93;;
39788;SDS011;25478;42.626;23.320;2022-12-07T11:05:42;58.13;;;29.23;;
39788;SDS011;25478;42.626;23.320;2022-12-07T11:22:00;49.20;;;24.93;;
39788;SDS011;25478;42.626;23.320;2022-12-07T11:24:42;38.70;;;21.47;;
39788;SDS011;25478;42.626;23.320;2022-12-07T11:38:38;20.10;;;11.30;;
39788;SDS011;25478;42.626;23.320;2022-12-07T11:41:09;18.70;;;10.17;;
39788;SDS011;25478;42.626;23.320;2022-12-07T11:43:41;19.13;;;9.13;;
39788;SDS011;25478;42.626;23.320;2022-12-07T11:46:11;16.20;;;9.40;;
39788;SDS011;25478;42.626;23.320;2022-12-07T11:48:45;17.13;;;9.30;;
39788;SDS011;25478;42.626;23.320;2022-12-07T11:51:15;18.37;;;8.90;;
39788;SDS011;25478;42.626;23.320;2022-12-07T11:53:52;17.17;;;8.77;;
39788;SDS011;25478;42.626;23.320;2022-12-07T11:56:23;19.63;;;12.07;;
39788;SDS011;25478;42.626;23.320;2022-12-07T11:59:08;18.90;;;11.00;;
39788;SDS011;25478;42.626;23.320;2022-12-07T12:06:39;26.07;;;11.60;;
39788;SDS011;25478;42.626;23.320;2022-12-07T12:09:21;23.07;;;11.43;;
39788;SDS011;25478;42.626;23.320;2022-12-07T12:17:29;18.15;;;10.15;;
39788;SDS011;25478;42.626;23.320;2022-12-07T12:22:52;26.20;;;12.10;;
39788;SDS011;25478;42.626;23.320;2022-12-07T12:25:28;21.40;;;11.07;;
39788;SDS011;25478;42.626;23.320;2022-12-07T12:27:57;20.93;;;10.80;;
39788;SDS011;25478;42.626;23.320;2022-12-07T12:30:26;26.03;;;11.57;;
39788;SDS011;25478;42.626;23.320;2022-12-07T12:33:12;24.77;;;11.60;;
39788;SDS011;25478;42.626;23.320;2022-12-07T12:35:42;19.87;;;10.40;;
39788;SDS011;25478;42.626;23.320;2022-12-07T12:38:25;20.43;;;11.37;;
39788;SDS011;25478;42.626;23.320;2022-12-07T12:40:57;27.93;;;11.90;;
39788;SDS011;25478;42.626;23.320;2022-12-07T12:51:43;24.30;;;12.60;;
39788;SDS011;25478;42.626;23.320;2022-12-07T12:54:23;26.00;;;12.50;;
39788;SDS011;25478;42.626;23.320;2022-12-07T12:56:52;25.67;;;12.43;;
39788;SDS011;25478;42.626;23.320;2022-12-07T12:59:35;23.53;;;11.07;;
39788;SDS011;25478;42.626;23.320;2022-12-07T13:12:56;23.97;;;11.67;;
39788;SDS011;25478;42.626;23.320;2022-12-07T13:15:38;22.57;;;12.40;;
39788;SDS011;25478;42.626;23.320;2022-12-07T13:20:57;31.83;;;13.53;;
39788;SDS011;25478;42.626;23.320;2022-12-07T13:28:50;36.97;;;16.73;;
39788;SDS011;25478;42.626;23.320;2022-12-07T13:34:05;31.13;;;16.30;;
39788;SDS011;25478;42.626;23.320;2022-12-07T13:36:51;30.70;;;16.50;;
39788;SDS011;25478;42.626;23.320;2022-12-07T13:39:21;32.03;;;16.30;;
39788;SDS011;25478;42.626;23.320;2022-12-07T13:41:49;31.57;;;16.27;;
39788;SDS011;25478;42.626;23.320;2022-12-07T13:44:17;29.93;;;15.90;;
39788;SDS011;25478;42.626;23.320;2022-12-07T13:46:49;32.03;;;15.50;;
39788;SDS011;25478;42.626;23.320;2022-12-07T13:49:49;35.93;;;16.27;;
39788;SDS011;25478;42.626;23.320;2022-12-07T13:54:59;32.77;;;16.27;;
39788;SDS011;25478;42.626;23.320;2022-12-07T13:57:31;31.00;;;15.23;;
39788;SDS011;25478;42.626;23.320;2022-12-07T14:00:00;31.77;;;15.40;;
39788;SDS011;25478;42.626;23.320;2022-12-07T14:02:31;25.07;;;13.43;;
39788;SDS011;25478;42.626;23.320;2022-12-07T14:07:52;27.63;;;14.30;;
39788;SDS011;25478;42.626;23.320;2022-12-07T14:12:54;36.50;;;18.87;;
39788;SDS011;25478;42.626;23.320;2022-12-07T14:15:21;33.23;;;19.07;;
39788;SDS011;25478;42.626;23.320;2022-12-07T14:17:53;46.83;;;23.93;;
39788;SDS011;25478;42.626;23.320;2022-12-07T14:22:58;51.57;;;26.20;;
39788;SDS011;25478;42.626;23.320;2022-12-07T14:25:24;50.37;;;24.50;;
39788;SDS011;25478;42.626;23.320;2022-12-07T14:27:53;35.57;;;18.50;;
39788;SDS011;25478;42.626;23.320;2022-12-07T14:30:21;31.57;;;17.07;;
39788;SDS011;25478;42.626;23.320;2022-12-07T14:32:50;31.57;;;17.03;;
39788;SDS011;25478;42.626;23.320;2022-12-07T14:35:18;24.80;;;16.77;;
39788;SDS011;25478;42.626;23.320;2022-12-07T14:37:46;28.43;;;16.17;;
39788;SDS011;25478;42.626;23.320;2022-12-07T14:40:13;24.67;;;13.93;;
39788;SDS011;25478;42.626;23.320;2022-12-07T14:42:41;20.30;;;11.80;;
39788;SDS011;25478;42.626;23.320;2022-12-07T14:45:18;18.83;;;12.00;;
39788;SDS011;25478;42.626;23.320;2022-12-07T14:47:45;29.80;;;13.30;;
39788;SDS011;25478;42.626;23.320;2022-12-07T14:50:15;24.10;;;12.67;;
39788;SDS011;25478;42.626;23.320;2022-12-07T14:52:52;24.27;;;14.17;;
39788;SDS011;25478;42.626;23.320;2022-12-07T14:57:49;29.03;;;15.53;;
39788;SDS011;25478;42.626;23.320;2022-12-07T15:00:15;31.93;;;16.90;;
39788;SDS011;25478;42.626;23.320;2022-12-07T15:02:42;37.67;;;20.67;;
39788;SDS011;25478;42.626;23.320;2022-12-07T15:05:09;60.53;;;34.53;;
39788;SDS011;25478;42.626;23.320;2022-12-07T15:07:34;58.90;;;32.30;;
39788;SDS011;25478;42.626;23.320;2022-12-07T15:10:00;86.63;;;51.03;;
39788;SDS011;25478;42.626;23.320;2022-12-07T15:12:25;57.00;;;33.07;;
39788;SDS011;25478;42.626;23.320;2022-12-07T15:14:52;54.77;;;29.80;;
39788;SDS011;25478;42.626;23.320;2022-12-07T15:17:17;88.57;;;46.20;;
39788;SDS011;25478;42.626;23.320;2022-12-07T15:19:43;58.00;;;31.50;;
39788;SDS011;25478;42.626;23.320;2022-12-07T15:22:08;49.10;;;28.80;;
39788;SDS011;25478;42.626;23.320;2022-12-07T15:24:36;51.17;;;29.60;;
39788;SDS011;25478;42.626;23.320;2022-12-07T15:27:02;55.73;;;29.90;;
39788;SDS011;25478;42.626;23.320;2022-12-07T15:29:28;35.60;;;21.67;;
39788;SDS011;25478;42.626;23.320;2022-12-07T15:31:53;30.73;;;16.73;;
39788;SDS011;25478;42.626;23.320;2022-12-07T15:34:20;34.97;;;18.93;;
39788;SDS011;25478;42.626;23.320;2022-12-07T15:36:45;41.17;;;22.73;;
39788;SDS011;25478;42.626;23.320;2022-12-07T15:39:11;39.27;;;21.37;;
39788;SDS011;25478;42.626;23.320;2022-12-07T15:41:37;31.50;;;18.17;;
39788;SDS011;25478;42.626;23.320;2022-12-07T15:44:02;28.37;;;16.70;;
39788;SDS011;25478;42.626;23.320;2022-12-07T15:46:46;27.20;;;14.98;;
39788;SDS011;25478;42.626;23.320;2022-12-07T15:49:13;36.63;;;19.80;;
39788;SDS011;25478;42.626;23.320;2022-12-07T15:51:41;41.70;;;23.13;;
39788;SDS011;25478;42.626;23.320;2022-12-07T15:54:10;40.57;;;20.77;;
39788;SDS011;25478;42.626;23.320;2022-12-07T15:56:38;40.57;;;21.13;;
39788;SDS011;25478;42.626;23.320;2022-12-07T15:59:03;49.60;;;28.07;;
39788;SDS011;25478;42.626;23.320;2022-12-07T16:01:29;43.63;;;26.17;;
39788;SDS011;25478;42.626;23.320;2022-12-07T16:03:54;36.80;;;22.83;;
39788;SDS011;25478;42.626;23.320;2022-12-07T16:06:22;30.67;;;19.23;;
39788;SDS011;25478;42.626;23.320;2022-12-07T16:08:48;26.67;;;14.57;;
39788;SDS011;25478;42.626;23.320;2022-12-07T16:11:14;28.10;;;14.90;;
39788;SDS011;25478;42.626;23.320;2022-12-07T16:13:39;30.63;;;16.23;;
39788;SDS011;25478;42.626;23.320;2022-12-07T16:16:05;41.10;;;21.67;;
39788;SDS011;25478;42.626;23.320;2022-12-07T16:18:34;35.37;;;18.70;;
39788;SDS011;25478;42.626;23.320;2022-12-07T16:21:00;27.63;;;14.87;;
39788;SDS011;25478;42.626;23.320;2022-12-07T16:23:26;24.27;;;15.53;;
39788;SDS011;25478;42.626;23.320;2022-12-07T16:25:52;25.17;;;14.10;;
39788;SDS011;25478;42.626;23.320;2022-12-07T16:28:17;26.63;;;13.03;;
39788;SDS011;25478;42.626;23.320;2022-12-07T16:30:44;24.10;;;12.93;;
39788;SDS011;25478;42.626;23.320;2022-12-07T16:33:10;28.57;;;14.50;;
39788;SDS011;25478;42.626;23.320;2022-12-07T16:35:38;27.93;;;14.03;;
39788;SDS011;25478;42.626;23.320;2022-12-07T16:38:06;25.90;;;14.23;;
39788;SDS011;25478;42.626;23.320;2022-12-07T16:40:32;32.63;;;16.87;;
39788;SDS011;25478;42.626;23.320;2022-12-07T16:42:58;31.47;;;15.97;;